createdAt,value
2022-08-17T00:00:43.019Z,41.28
2022-08-17T00:01:51.762Z,41.29
2022-08-17T00:03:15.406Z,41.52
2022-08-17T00:04:28.101Z,41.45
2022-08-17T00:05:44.390Z,41.16
2022-08-17T00:06:54.744Z,41.06
2022-08-17T00:08:03.030Z,41.05
2022-08-17T00:09:12.304Z,41.06
2022-08-17T00:10:26.317Z,41.11
2022-08-17T00:11:40.979Z,41.08
2022-08-17T00:12:50.335Z,40.97
2022-08-17T00:14:06.602Z,40.92
2022-08-17T00:15:16.948Z,40.93
2022-08-17T00:16:56.169Z,41.04
2022-08-17T00:18:03.124Z,40.63
2022-08-17T00:19:14.063Z,40.59
2022-08-17T00:20:23.428Z,40.65
2022-08-17T00:22:32.814Z,40.60
2022-08-17T00:23:19.348Z,40.65
2022-08-17T00:24:27.012Z,40.56
2022-08-17T00:25:35.788Z,40.51
2022-08-17T00:26:45.742Z,40.49
2022-08-17T00:27:54.952Z,40.39
2022-08-17T00:29:07.827Z,40.27
2022-08-17T00:30:17.926Z,40.20
2022-08-17T00:31:25.155Z,40.34
2022-08-17T00:33:14.162Z,40.48
2022-08-17T00:34:08.062Z,40.37
2022-08-17T00:35:16.168Z,40.14
2022-08-17T00:36:25.306Z,40.13
2022-08-17T00:37:32.483Z,40.01
2022-08-17T00:38:40.606Z,39.89
2022-08-17T00:39:51.734Z,39.89
2022-08-17T00:41:17.157Z,39.91
2022-08-17T00:42:31.166Z,39.87
2022-08-17T00:43:57.629Z,39.67
2022-08-17T00:45:07.929Z,39.61
2022-08-17T00:46:28.231Z,39.62
2022-08-17T00:47:37.373Z,39.67
2022-08-17T00:48:46.395Z,39.71
2022-08-17T00:49:56.192Z,39.70
2022-08-17T00:51:09.287Z,39.55
2022-08-17T00:52:21.884Z,39.45
2022-08-17T00:53:30.813Z,39.54
2022-08-17T00:54:41.902Z,39.53
2022-08-17T00:55:52.167Z,39.60
2022-08-17T00:57:06.504Z,39.38
2022-08-17T00:58:14.552Z,39.18
2022-08-17T00:59:25.104Z,39.38
2022-08-17T01:00:44.777Z,39.17
2022-08-17T01:01:56.987Z,38.94
2022-08-17T01:03:15.303Z,38.88
2022-08-17T01:04:24.585Z,38.75
2022-08-17T01:05:36.087Z,38.69
2022-08-17T01:06:50.893Z,38.60
2022-08-17T01:08:02.602Z,38.57
2022-08-17T01:09:11.377Z,38.52
2022-08-17T01:10:57.150Z,38.37
2022-08-17T01:11:48.218Z,38.25
2022-08-17T01:12:57.929Z,38.17
2022-08-17T01:14:05.132Z,38.20
2022-08-17T01:15:14.266Z,38.18
2022-08-17T01:16:31.447Z,37.99
2022-08-17T01:17:38.971Z,37.94
2022-08-17T01:18:47.933Z,37.94
2022-08-17T01:19:57.168Z,37.91
2022-08-17T01:21:09.635Z,37.73
2022-08-17T01:22:29.223Z,37.64
2022-08-17T01:23:41.351Z,37.62
2022-08-17T01:25:03.033Z,37.42
2022-08-17T01:26:12.462Z,37.46
2022-08-17T01:27:20.682Z,37.35
2022-08-17T01:28:52.999Z,37.20
2022-08-17T01:30:57.398Z,37.11
2022-08-17T01:31:43.240Z,36.88
2022-08-17T01:32:51.885Z,36.61
2022-08-17T01:34:02.562Z,36.42
2022-08-17T01:35:10.571Z,36.24
2022-08-17T01:36:17.661Z,36.05
2022-08-17T01:37:33.845Z,35.94
2022-08-17T01:38:44.017Z,35.85
2022-08-17T01:39:56.179Z,35.92
2022-08-17T01:41:07.483Z,35.89
2022-08-17T01:42:29.200Z,35.85
2022-08-17T01:43:51.116Z,35.85
2022-08-17T01:45:00.234Z,35.82
2022-08-17T01:46:09.377Z,35.76
2022-08-17T01:47:18.073Z,35.66
2022-08-17T01:48:25.615Z,35.57
2022-08-17T01:49:34.877Z,35.49
2022-08-17T01:50:44.965Z,35.50
2022-08-17T01:51:56.319Z,35.49
2022-08-17T01:53:09.393Z,35.53
2022-08-17T01:54:18.583Z,35.46
2022-08-17T01:55:31.015Z,35.39
2022-08-17T01:56:42.366Z,35.31
2022-08-17T01:57:50.796Z,35.29
2022-08-17T01:58:58.579Z,35.20
2022-08-17T02:00:13.563Z,35.17
2022-08-17T02:01:22.647Z,35.08
2022-08-17T02:02:30.644Z,34.94
2022-08-17T02:03:38.912Z,34.84
2022-08-17T02:04:46.871Z,34.70
2022-08-17T02:05:54.874Z,34.56
2022-08-17T02:07:03.401Z,34.49
2022-08-17T02:08:19.894Z,34.42
2022-08-17T02:09:30.119Z,34.36
2022-08-17T02:10:39.109Z,34.25
2022-08-17T02:11:57.998Z,34.17
2022-08-17T02:13:07.497Z,34.04
2022-08-17T02:14:15.207Z,33.90
2022-08-17T02:15:25.209Z,33.72
2022-08-17T02:16:37.797Z,33.59
2022-08-17T02:17:48.224Z,33.40
2022-08-17T02:19:04.690Z,33.19
2022-08-17T02:20:12.443Z,33.06
2022-08-17T02:21:20.195Z,32.86
2022-08-17T02:22:28.040Z,32.70
2022-08-17T02:23:42.360Z,32.57
2022-08-17T02:25:00.983Z,32.46
2022-08-17T02:26:11.783Z,32.30
2022-08-17T02:27:35.313Z,32.14
2022-08-17T02:28:46.541Z,32.07
2022-08-17T02:29:58.041Z,31.99
2022-08-17T02:31:14.078Z,31.91
2022-08-17T02:32:28.243Z,31.83
2022-08-17T02:33:42.805Z,31.72
2022-08-17T02:34:54.462Z,31.61
2022-08-17T02:36:01.712Z,31.54
2022-08-17T02:37:10.820Z,31.49
2022-08-17T02:38:20.886Z,31.43
2022-08-17T02:39:32.064Z,31.36
2022-08-17T02:40:42.306Z,31.28
2022-08-17T02:42:05.167Z,31.21
2022-08-17T02:43:16.299Z,31.13
2022-08-17T02:44:40.010Z,31.07
2022-08-17T02:45:53.209Z,30.99
2022-08-17T02:47:00.712Z,30.94
2022-08-17T02:48:09.520Z,30.89
2022-08-17T02:49:17.502Z,30.84
2022-08-17T02:50:26.078Z,30.79
2022-08-17T02:51:34.407Z,30.74
2022-08-17T02:52:44.585Z,30.69
2022-08-17T02:54:03.892Z,30.62
2022-08-17T02:55:30.600Z,30.53
2022-08-17T02:56:39.542Z,30.48
2022-08-17T02:57:48.827Z,30.43
2022-08-17T02:58:59.068Z,30.37
2022-08-17T03:00:23.365Z,30.33
2022-08-17T03:01:32.189Z,30.28
2022-08-17T03:02:48.449Z,30.23
2022-08-17T03:03:57.649Z,30.18
2022-08-17T03:05:06.136Z,30.13
2022-08-17T03:06:13.202Z,30.09
2022-08-17T03:07:21.693Z,30.03
2022-08-17T03:08:32.055Z,29.97
2022-08-17T03:09:42.090Z,29.91
2022-08-17T03:10:51.329Z,29.86
2022-08-17T03:12:05.323Z,29.81
2022-08-17T03:13:15.917Z,29.70
2022-08-17T03:14:25.940Z,29.62
2022-08-17T03:15:34.827Z,29.56
2022-08-17T03:16:42.850Z,29.49
2022-08-17T03:17:54.208Z,29.41
2022-08-17T03:19:01.349Z,29.35
2022-08-17T03:20:09.760Z,29.27
2022-08-17T03:21:17.422Z,29.20
2022-08-17T03:22:36.035Z,29.15
2022-08-17T03:23:48.773Z,29.08
2022-08-17T03:25:04.346Z,29.01
2022-08-17T03:26:23.391Z,28.95
2022-08-17T03:27:42.612Z,28.90
2022-08-17T03:28:57.801Z,28.85
2022-08-17T03:30:08.455Z,28.80
2022-08-17T03:31:19.662Z,28.75
2022-08-17T03:32:28.499Z,28.69
2022-08-17T03:33:36.268Z,28.63
2022-08-17T03:34:44.834Z,28.61
2022-08-17T03:35:52.797Z,28.57
2022-08-17T03:37:04.715Z,28.53
2022-08-17T03:38:15.199Z,28.48
2022-08-17T03:39:25.698Z,28.44
2022-08-17T03:40:58.155Z,28.42
2022-08-17T03:42:32.052Z,28.38
2022-08-17T03:43:42.974Z,28.34
2022-08-17T03:44:53.582Z,28.30
2022-08-17T03:46:34.594Z,28.28
2022-08-17T03:48:07.327Z,28.24
2022-08-17T03:49:37.543Z,28.19
2022-08-17T03:51:14.545Z,28.14
2022-08-17T03:52:51.947Z,28.07
2022-08-17T03:54:22.731Z,28.00
2022-08-17T03:55:52.142Z,27.93
2022-08-17T03:57:03.797Z,27.87
2022-08-17T03:58:16.060Z,27.83
2022-08-17T03:59:24.361Z,27.79
2022-08-17T04:00:40.355Z,27.74
2022-08-17T04:01:53.769Z,27.69
2022-08-17T04:03:09.088Z,27.64
2022-08-17T04:04:17.436Z,27.60
2022-08-17T04:05:25.482Z,27.56
2022-08-17T04:06:35.227Z,27.52
2022-08-17T04:07:43.747Z,27.47
2022-08-17T04:08:52.169Z,27.42
2022-08-17T04:10:01.589Z,27.37
2022-08-17T04:11:13.059Z,27.32
2022-08-17T04:12:22.466Z,27.27
2022-08-17T04:13:30.787Z,27.24
2022-08-17T04:14:53.763Z,27.20
2022-08-17T04:16:13.393Z,27.16
2022-08-17T04:17:24.258Z,27.10
2022-08-17T04:18:37.590Z,27.05
2022-08-17T04:19:47.141Z,27.00
2022-08-17T04:20:55.467Z,26.97
2022-08-17T04:22:07.347Z,26.94
2022-08-17T04:23:16.383Z,26.90
2022-08-17T04:24:27.130Z,26.86
2022-08-17T04:25:35.875Z,26.84
2022-08-17T04:26:53.118Z,26.77
2022-08-17T04:28:09.034Z,26.70
2022-08-17T04:29:27.347Z,26.67
2022-08-17T04:30:56.958Z,26.60
2022-08-17T04:32:05.710Z,26.57
2022-08-17T04:33:23.390Z,26.54
2022-08-17T04:34:30.623Z,26.50
2022-08-17T04:35:43.004Z,26.46
2022-08-17T04:36:51.530Z,26.43
2022-08-17T04:38:02.157Z,26.39
2022-08-17T04:39:13.207Z,26.36
2022-08-17T04:40:41.887Z,26.32
2022-08-17T04:42:19.715Z,26.28
2022-08-17T04:43:30.223Z,26.23
2022-08-17T04:44:39.619Z,26.19
2022-08-17T04:45:56.025Z,26.16
2022-08-17T04:47:13.014Z,26.15
2022-08-17T04:48:22.822Z,26.12
2022-08-17T04:49:39.509Z,26.09
2022-08-17T04:50:50.905Z,26.07
2022-08-17T04:52:04.314Z,26.04
2022-08-17T04:53:14.393Z,26.02
2022-08-17T04:54:23.446Z,26.00
2022-08-17T04:55:33.764Z,25.98
2022-08-17T04:56:41.180Z,25.94
2022-08-17T04:57:48.430Z,25.92
2022-08-17T04:58:58.912Z,25.90
2022-08-17T05:00:08.041Z,25.87
2022-08-17T05:01:16.430Z,25.87
2022-08-17T05:02:34.645Z,25.85
2022-08-17T05:04:00.642Z,25.83
2022-08-17T05:05:32.444Z,25.79
2022-08-17T05:06:41.871Z,25.76
2022-08-17T05:07:54.529Z,25.75
2022-08-17T05:09:02.956Z,25.72
2022-08-17T05:10:13.075Z,25.70
2022-08-17T05:11:20.321Z,25.69
2022-08-17T05:12:30.511Z,25.69
2022-08-17T05:13:39.938Z,25.67
2022-08-17T05:14:50.573Z,25.67
2022-08-17T05:16:02.088Z,25.67
2022-08-17T05:17:11.055Z,25.67
2022-08-17T05:18:19.772Z,25.66
2022-08-17T05:19:28.173Z,25.66
2022-08-17T05:20:39.050Z,25.65
2022-08-17T05:21:47.759Z,25.61
2022-08-17T05:22:57.841Z,25.55
2022-08-17T05:24:06.036Z,25.49
2022-08-17T05:25:37.439Z,25.41
2022-08-17T05:26:45.840Z,25.34
2022-08-17T05:27:55.449Z,25.31
2022-08-17T05:29:04.112Z,25.28
2022-08-17T05:30:12.124Z,25.28
2022-08-17T05:31:20.414Z,25.26
2022-08-17T05:32:48.324Z,25.23
2022-08-17T05:33:59.048Z,25.19
2022-08-17T05:35:10.958Z,25.17
2022-08-17T05:36:42.199Z,25.15
2022-08-17T05:37:52.874Z,25.09
2022-08-17T05:39:00.673Z,25.05
2022-08-17T05:40:09.473Z,25.02
2022-08-17T05:41:19.036Z,24.98
2022-08-17T05:42:26.280Z,24.93
2022-08-17T05:43:36.844Z,24.88
2022-08-17T05:44:45.974Z,24.84
2022-08-17T05:46:22.533Z,24.80
2022-08-17T05:47:30.853Z,24.77
2022-08-17T05:48:47.412Z,24.75
2022-08-17T05:49:57.309Z,24.74
2022-08-17T05:51:28.784Z,24.73
2022-08-17T05:53:24.746Z,24.72
2022-08-17T05:55:13.390Z,24.68
2022-08-17T05:56:30.646Z,24.63
2022-08-17T05:57:56.322Z,24.60
2022-08-17T05:59:33.431Z,24.54
2022-08-17T06:01:05.906Z,24.46
2022-08-17T06:02:27.355Z,24.39
2022-08-17T06:03:39.616Z,24.33
2022-08-17T06:04:48.732Z,24.29
2022-08-17T06:06:08.020Z,24.24
2022-08-17T06:07:25.189Z,24.20
2022-08-17T06:08:47.615Z,24.16
2022-08-17T06:10:13.912Z,24.12
2022-08-17T06:11:40.492Z,24.07
2022-08-17T06:13:17.875Z,24.03
2022-08-17T06:14:32.352Z,23.99
2022-08-17T06:15:53.858Z,23.97
2022-08-17T06:17:07.305Z,23.95
2022-08-17T06:18:19.015Z,23.92
2022-08-17T06:19:35.209Z,23.90
2022-08-17T06:20:56.959Z,23.87
2022-08-17T06:22:04.790Z,23.85
2022-08-17T06:23:17.040Z,23.86
2022-08-17T06:24:49.830Z,23.89
2022-08-17T06:26:05.372Z,23.90
2022-08-17T06:27:38.347Z,23.91
2022-08-17T06:29:18.668Z,23.93
2022-08-17T06:30:57.477Z,23.95
2022-08-17T06:32:03.285Z,23.96
2022-08-17T06:33:16.565Z,23.97
2022-08-17T06:34:27.446Z,23.96
2022-08-17T06:36:15.794Z,23.97
2022-08-17T06:37:58.183Z,23.95
2022-08-17T06:39:08.814Z,23.94
2022-08-17T06:40:40.377Z,23.93
2022-08-17T06:42:00.084Z,23.91
2022-08-17T06:43:37.830Z,23.88
2022-08-17T06:44:51.224Z,23.83
2022-08-17T06:46:13.397Z,23.77
2022-08-17T06:47:55.112Z,23.69
2022-08-17T06:49:55.593Z,23.60
2022-08-17T06:51:12.756Z,23.49
2022-08-17T06:52:45.752Z,23.43
2022-08-17T06:54:02.859Z,23.36
2022-08-17T06:55:17.832Z,23.31
2022-08-17T06:56:53.444Z,23.26
2022-08-17T06:58:16.245Z,23.18
2022-08-17T06:59:54.733Z,23.11
2022-08-17T07:01:26.521Z,23.05
2022-08-17T07:02:52.415Z,23.00
2022-08-17T07:04:16.633Z,22.95
2022-08-17T07:05:44.998Z,22.91
2022-08-17T07:07:23.969Z,22.86
2022-08-17T07:09:33.929Z,22.80
2022-08-17T07:10:53.202Z,22.73
2022-08-17T07:12:13.202Z,22.70
2022-08-17T07:13:39.868Z,22.67
2022-08-17T07:15:21.679Z,22.64
2022-08-17T07:16:37.544Z,22.62
2022-08-17T07:17:48.737Z,22.59
2022-08-17T07:18:56.884Z,22.58
2022-08-17T07:20:08.009Z,22.56
2022-08-17T07:21:40.190Z,22.55
2022-08-17T07:23:00.732Z,22.55
2022-08-17T07:24:49.259Z,22.57
2022-08-17T07:26:09.485Z,22.60
2022-08-17T07:27:32.491Z,22.62
2022-08-17T07:28:42.578Z,22.65
2022-08-17T07:29:52.422Z,22.69
2022-08-17T07:31:03.396Z,22.71
2022-08-17T07:32:11.079Z,22.73
2022-08-17T07:33:25.152Z,22.77
2022-08-17T07:34:32.425Z,22.81
2022-08-17T07:35:45.840Z,22.84
2022-08-17T07:37:06.491Z,22.86
2022-08-17T07:38:29.527Z,22.88
2022-08-17T07:40:14.919Z,22.90
2022-08-17T07:41:09.690Z,22.88
2022-08-17T07:42:19.764Z,22.86
2022-08-17T07:43:38.359Z,22.85
2022-08-17T07:44:57.718Z,22.85
2022-08-17T07:46:44.226Z,22.86
2022-08-17T07:48:12.713Z,22.84
2022-08-17T07:49:34.153Z,22.81
2022-08-17T07:50:42.973Z,22.78
2022-08-17T07:52:00.173Z,22.76
2022-08-17T07:53:30.307Z,22.73
2022-08-17T07:54:39.943Z,22.73
2022-08-17T07:55:47.556Z,22.72
2022-08-17T07:57:16.663Z,22.72
2022-08-17T07:58:26.119Z,22.68
2022-08-17T07:59:40.763Z,22.64
2022-08-17T08:01:13.797Z,22.61
2022-08-17T08:02:42.579Z,22.57
2022-08-17T08:03:52.450Z,22.53
2022-08-17T08:05:46.257Z,22.49
2022-08-17T08:06:57.759Z,22.45
2022-08-17T08:08:24.721Z,22.44
2022-08-17T08:09:53.761Z,22.42
2022-08-17T08:11:04.212Z,22.40
2022-08-17T08:12:32.718Z,22.37
2022-08-17T08:13:47.260Z,22.35
2022-08-17T08:15:20.350Z,22.34
2022-08-17T08:16:31.055Z,22.32
2022-08-17T08:17:50.153Z,22.32
2022-08-17T08:19:03.593Z,22.32
2022-08-17T08:20:19.660Z,22.32
2022-08-17T08:21:52.757Z,22.29
2022-08-17T08:23:22.286Z,22.27
2022-08-17T08:25:04.401Z,22.24
2022-08-17T08:26:31.772Z,22.19
2022-08-17T08:27:53.332Z,22.14
2022-08-17T08:29:19.524Z,22.11
2022-08-17T08:30:26.516Z,22.06
2022-08-17T08:31:53.034Z,22.03
2022-08-17T08:33:21.643Z,22.00
2022-08-17T08:35:02.098Z,21.97
2022-08-17T08:37:14.525Z,21.93
2022-08-17T08:38:43.965Z,21.92
2022-08-17T08:40:13.450Z,21.89
2022-08-17T08:41:46.184Z,21.88
2022-08-17T08:43:24.341Z,21.86
2022-08-17T08:45:00.351Z,21.84
2022-08-17T08:46:14.586Z,21.81
2022-08-17T08:47:51.105Z,21.81
2022-08-17T08:49:14.601Z,21.81
2022-08-17T08:50:38.462Z,21.84
2022-08-17T08:51:59.674Z,21.85
2022-08-17T08:53:09.540Z,21.85
2022-08-17T08:54:33.461Z,21.88
2022-08-17T08:56:05.646Z,21.90
2022-08-17T08:57:32.910Z,21.91
2022-08-17T08:59:03.456Z,21.92
2022-08-17T09:00:19.473Z,21.94
2022-08-17T09:01:45.030Z,21.96
2022-08-17T09:03:14.399Z,21.99
2022-08-17T09:04:44.943Z,22.01
2022-08-17T09:06:53.992Z,22.02
2022-08-17T09:08:41.265Z,22.01
2022-08-17T09:10:15.235Z,22.03
2022-08-17T09:11:23.936Z,22.04
2022-08-17T09:12:50.744Z,22.05
2022-08-17T09:14:21.297Z,22.06
2022-08-17T09:15:47.165Z,22.07
2022-08-17T09:17:10.439Z,22.07
2022-08-17T09:19:03.191Z,22.07
2022-08-17T09:20:29.011Z,22.07
2022-08-17T09:21:57.898Z,22.08
2022-08-17T09:23:27.647Z,22.07
2022-08-17T09:24:47.020Z,22.07
2022-08-17T09:26:05.281Z,22.08
2022-08-17T09:27:17.884Z,22.09
2022-08-17T09:28:39.049Z,22.11
2022-08-17T09:30:03.767Z,22.13
2022-08-17T09:31:13.156Z,22.16
2022-08-17T09:32:26.583Z,22.18
2022-08-17T09:33:35.996Z,22.18
2022-08-17T09:34:56.275Z,22.19
2022-08-17T09:36:33.699Z,22.20
2022-08-17T09:38:03.841Z,22.21
2022-08-17T09:39:13.673Z,22.21
2022-08-17T09:40:29.517Z,22.22
2022-08-17T09:41:48.977Z,22.23
2022-08-17T09:43:32.053Z,22.24
2022-08-17T09:45:15.040Z,22.25
2022-08-17T09:46:26.762Z,22.26
2022-08-17T09:47:47.662Z,22.28
2022-08-17T09:49:08.761Z,22.29
2022-08-17T09:51:03.553Z,22.31
2022-08-17T09:52:24.739Z,22.32
2022-08-17T09:53:32.917Z,22.32
2022-08-17T09:54:41.341Z,22.32
2022-08-17T09:56:07.456Z,22.31
2022-08-17T09:57:31.479Z,22.29
2022-08-17T09:58:44.169Z,22.27
2022-08-17T10:00:21.690Z,22.26
2022-08-17T10:01:39.552Z,22.24
2022-08-17T10:03:11.278Z,22.23
2022-08-17T10:04:29.560Z,22.21
2022-08-17T10:05:48.762Z,22.19
2022-08-17T10:07:00.558Z,22.19
2022-08-17T10:08:44.540Z,22.19
2022-08-17T10:09:54.593Z,22.18
2022-08-17T10:11:50.370Z,22.15
2022-08-17T10:13:09.647Z,22.11
2022-08-17T10:14:37.359Z,22.08
2022-08-17T10:16:32.779Z,22.05
2022-08-17T10:17:43.502Z,22.02
2022-08-17T10:19:18.267Z,22.01
2022-08-17T10:20:28.147Z,22.01
2022-08-17T10:22:01.160Z,21.99
2022-08-17T10:23:49.705Z,21.98
2022-08-17T10:25:22.316Z,21.97
2022-08-17T10:26:55.784Z,21.93
2022-08-17T10:28:07.401Z,21.90
2022-08-17T10:29:28.951Z,21.87
2022-08-17T10:30:39.439Z,21.85
2022-08-17T10:31:52.252Z,21.82
2022-08-17T10:33:09.505Z,21.81
2022-08-17T10:34:41.302Z,21.79
2022-08-17T10:36:10.191Z,21.76
2022-08-17T10:37:43.224Z,21.74
2022-08-17T10:39:06.484Z,21.69
2022-08-17T10:40:31.923Z,21.66
2022-08-17T10:41:46.908Z,21.64
2022-08-17T10:43:21.080Z,21.60
2022-08-17T10:44:41.068Z,21.55
2022-08-17T10:46:30.051Z,21.49
2022-08-17T10:48:06.498Z,21.43
2022-08-17T10:49:23.595Z,21.40
2022-08-17T10:51:01.495Z,21.40
2022-08-17T10:52:24.821Z,21.39
2022-08-17T10:53:35.441Z,21.37
2022-08-17T10:54:47.964Z,21.36
2022-08-17T10:56:22.504Z,21.37
2022-08-17T10:57:35.957Z,21.37
2022-08-17T10:58:55.625Z,21.38
2022-08-17T11:00:04.104Z,21.38
2022-08-17T11:01:14.340Z,21.38
2022-08-17T11:02:43.768Z,21.38
2022-08-17T11:03:56.078Z,21.39
2022-08-17T11:05:09.806Z,21.40
2022-08-17T11:06:22.571Z,21.41
2022-08-17T11:08:06.873Z,21.41
2022-08-17T11:09:37.928Z,21.42
2022-08-17T11:10:59.726Z,21.42
2022-08-17T11:12:13.959Z,21.43
2022-08-17T11:13:50.030Z,21.45
2022-08-17T11:15:44.595Z,21.45
2022-08-17T11:17:14.502Z,21.45
2022-08-17T11:18:42.932Z,21.50
2022-08-17T11:20:23.591Z,21.55
2022-08-17T11:22:07.332Z,21.56
2022-08-17T11:23:36.876Z,21.58
2022-08-17T11:24:54.276Z,21.59
2022-08-17T11:26:09.558Z,21.61
2022-08-17T11:27:33.939Z,21.62
2022-08-17T11:28:52.808Z,21.61
2022-08-17T11:30:03.263Z,21.59
2022-08-17T11:31:44.278Z,21.56
2022-08-17T11:32:53.431Z,21.54
2022-08-17T11:34:27.671Z,21.53
2022-08-17T11:35:41.854Z,21.51
2022-08-17T11:37:25.679Z,21.51
2022-08-17T11:38:49.130Z,21.51
2022-08-17T11:40:28.841Z,21.50
2022-08-17T11:42:01.452Z,21.49
2022-08-17T11:43:18.759Z,21.47
2022-08-17T11:44:45.667Z,21.47
2022-08-17T11:46:17.601Z,21.46
2022-08-17T11:48:23.871Z,21.45
2022-08-17T11:50:27.992Z,21.43
2022-08-17T11:52:06.626Z,21.40
2022-08-17T11:53:41.159Z,21.39
2022-08-17T11:54:50.545Z,21.38
2022-08-17T11:56:06.195Z,21.35
2022-08-17T11:57:22.883Z,21.31
2022-08-17T11:58:33.095Z,21.26
2022-08-17T11:59:44.894Z,21.22
2022-08-17T12:00:57.369Z,21.19
2022-08-17T12:02:06.094Z,21.14
2022-08-17T12:03:39.395Z,21.07
2022-08-17T12:05:05.144Z,21.00
2022-08-17T12:06:30.757Z,20.92
2022-08-17T12:08:09.582Z,20.86
2022-08-17T12:09:26.073Z,20.78
2022-08-17T12:10:35.569Z,20.74
2022-08-17T12:12:13.117Z,20.71
2022-08-17T12:13:33.977Z,20.69
2022-08-17T12:15:10.224Z,20.66
2022-08-17T12:16:19.776Z,20.64
2022-08-17T12:17:41.184Z,20.64
2022-08-17T12:18:54.286Z,20.63
2022-08-17T12:20:34.244Z,20.63
2022-08-17T12:21:55.760Z,20.60
2022-08-17T12:23:27.676Z,20.58
2022-08-17T12:25:01.976Z,20.57
2022-08-17T12:26:22.666Z,20.56
2022-08-17T12:27:46.224Z,20.54
2022-08-17T12:29:09.511Z,20.51
2022-08-17T12:30:26.771Z,20.47
2022-08-17T12:31:37.348Z,20.46
2022-08-17T12:32:48.845Z,20.46
2022-08-17T12:33:56.116Z,20.47
2022-08-17T12:35:04.715Z,20.49
2022-08-17T12:36:14.183Z,20.50
2022-08-17T12:37:32.874Z,20.50
2022-08-17T12:38:40.177Z,20.49
2022-08-17T12:40:10.575Z,20.46
2022-08-17T12:41:33.486Z,20.42
2022-08-17T12:42:42.911Z,20.40
2022-08-17T12:43:57.371Z,20.38
2022-08-17T12:45:06.280Z,20.35
2022-08-17T12:46:18.750Z,20.34
2022-08-17T12:47:26.064Z,20.33
2022-08-17T12:48:38.345Z,20.33
2022-08-17T12:49:47.319Z,20.34
2022-08-17T12:51:12.721Z,20.34
2022-08-17T12:52:34.033Z,20.35
2022-08-17T12:53:44.112Z,20.35
2022-08-17T12:55:07.009Z,20.36
2022-08-17T12:56:16.124Z,20.36
2022-08-17T12:57:30.304Z,20.36
2022-08-17T12:58:45.621Z,20.35
2022-08-17T13:00:21.586Z,20.34
2022-08-17T13:01:32.317Z,20.32
2022-08-17T13:03:20.877Z,20.31
2022-08-17T13:04:29.968Z,20.28
2022-08-17T13:05:44.946Z,20.26
2022-08-17T13:06:59.865Z,20.25
2022-08-17T13:08:19.370Z,20.25
2022-08-17T13:09:35.842Z,20.24
2022-08-17T13:11:03.604Z,20.23
2022-08-17T13:12:12.151Z,20.22
2022-08-17T13:13:27.590Z,20.22
2022-08-17T13:14:37.632Z,20.23
2022-08-17T13:15:54.515Z,20.23
2022-08-17T13:17:12.703Z,20.23
2022-08-17T13:18:42.092Z,20.23
2022-08-17T13:19:52.241Z,20.22
2022-08-17T13:21:00.848Z,20.24
2022-08-17T13:22:13.411Z,20.25
2022-08-17T13:23:21.845Z,20.27
2022-08-17T13:24:38.150Z,20.28
2022-08-17T13:26:08.419Z,20.31
2022-08-17T13:27:16.813Z,20.33
2022-08-17T13:28:30.659Z,20.36
2022-08-17T13:30:01.616Z,20.39
2022-08-17T13:31:51.893Z,20.43
2022-08-17T13:33:05.384Z,20.53
2022-08-17T13:34:19.634Z,20.63
2022-08-17T13:35:38.966Z,20.74
2022-08-17T13:36:48.904Z,20.86
2022-08-17T13:38:09.006Z,20.97
2022-08-17T13:39:24.367Z,21.09
2022-08-17T13:40:33.974Z,21.23
2022-08-17T13:41:41.287Z,21.37
2022-08-17T13:42:54.291Z,21.51
2022-08-17T13:44:03.180Z,21.68
2022-08-17T13:45:42.198Z,21.84
2022-08-17T13:46:57.329Z,21.98
2022-08-17T13:48:23.871Z,22.04
2022-08-17T13:49:41.980Z,22.08
2022-08-17T13:50:58.657Z,22.18
2022-08-17T13:52:07.611Z,22.31
2022-08-17T13:53:51.994Z,22.50
2022-08-17T13:54:59.213Z,22.81
2022-08-17T13:56:37.223Z,23.06
2022-08-17T13:57:40.007Z,23.36
2022-08-17T13:59:09.377Z,23.53
2022-08-17T14:00:38.315Z,23.77
2022-08-17T14:01:52.798Z,24.01
2022-08-17T14:03:03.261Z,24.22
2022-08-17T14:04:18.181Z,24.40
2022-08-17T14:05:28.190Z,24.55
2022-08-17T14:07:01.357Z,24.68
2022-08-17T14:08:08.793Z,24.79
2022-08-17T14:09:16.702Z,24.90
2022-08-17T14:10:25.333Z,25.04
2022-08-17T14:11:32.490Z,25.19
2022-08-17T14:12:40.716Z,25.32
2022-08-17T14:13:48.197Z,25.48
2022-08-17T14:14:58.298Z,25.63
2022-08-17T14:16:05.821Z,25.77
2022-08-17T14:17:13.087Z,25.95
2022-08-17T14:18:50.675Z,26.11
2022-08-17T14:19:49.693Z,26.26
2022-08-17T14:20:58.704Z,26.35
2022-08-17T14:22:06.680Z,26.43
2022-08-17T14:23:16.435Z,26.50
2022-08-17T14:24:26.799Z,26.56
2022-08-17T14:25:35.966Z,26.66
2022-08-17T14:26:46.076Z,26.77
2022-08-17T14:27:56.863Z,26.89
2022-08-17T14:29:12.677Z,27.03
2022-08-17T14:30:26.783Z,27.22
2022-08-17T14:31:38.240Z,27.39
2022-08-17T14:32:49.845Z,27.55
2022-08-17T14:33:57.426Z,27.72
2022-08-17T14:35:07.710Z,27.86
2022-08-17T14:36:15.438Z,27.95
2022-08-17T14:37:23.271Z,28.06
2022-08-17T14:38:31.133Z,28.15
2022-08-17T14:39:39.744Z,28.19
2022-08-17T14:40:51.263Z,28.18
2022-08-17T14:41:59.914Z,28.23
2022-08-17T14:43:07.548Z,28.32
2022-08-17T14:44:18.011Z,28.38
2022-08-17T14:45:30.293Z,28.42
2022-08-17T14:46:52.226Z,28.40
2022-08-17T14:48:00.704Z,28.37
2022-08-17T14:49:08.803Z,28.42
2022-08-17T14:50:22.533Z,28.53
2022-08-17T14:51:32.070Z,28.64
2022-08-17T14:52:43.653Z,28.81
2022-08-17T14:53:52.938Z,28.96
2022-08-17T14:55:02.051Z,29.05
2022-08-17T14:56:13.074Z,29.06
2022-08-17T14:57:34.261Z,29.08
2022-08-17T14:58:47.769Z,29.11
2022-08-17T14:59:58.306Z,29.18
2022-08-17T15:01:09.880Z,29.28
2022-08-17T15:02:19.767Z,29.48
2022-08-17T15:03:27.572Z,29.68
2022-08-17T15:04:35.323Z,29.81
2022-08-17T15:05:45.861Z,29.82
2022-08-17T15:06:55.947Z,29.71
2022-08-17T15:08:05.518Z,29.61
2022-08-17T15:09:18.162Z,29.54
2022-08-17T15:10:26.123Z,29.44
2022-08-17T15:11:34.224Z,29.29
2022-08-17T15:12:43.637Z,29.20
2022-08-17T15:13:54.544Z,29.20
2022-08-17T15:15:04.696Z,29.25
2022-08-17T15:16:15.295Z,29.22
2022-08-17T15:17:25.456Z,29.19
2022-08-17T15:18:54.138Z,29.12
2022-08-17T15:20:01.511Z,29.15
2022-08-17T15:21:09.630Z,29.26
2022-08-17T15:22:28.343Z,29.40
2022-08-17T15:23:38.213Z,29.50
2022-08-17T15:24:48.525Z,29.76
2022-08-17T15:25:58.554Z,29.86
2022-08-17T15:27:08.565Z,29.97
2022-08-17T15:28:16.792Z,30.08
2022-08-17T15:29:24.896Z,30.10
2022-08-17T15:30:34.343Z,30.11
2022-08-17T15:31:45.311Z,30.18
2022-08-17T15:32:55.534Z,30.33
2022-08-17T15:34:08.061Z,30.47
2022-08-17T15:35:18.518Z,30.70
2022-08-17T15:36:26.109Z,30.99
2022-08-17T15:37:35.404Z,31.24
2022-08-17T15:38:44.511Z,31.49
2022-08-17T15:39:54.608Z,31.69
2022-08-17T15:41:06.251Z,31.82
2022-08-17T15:42:17.908Z,31.88
2022-08-17T15:43:35.630Z,31.98
2022-08-17T15:44:46.132Z,32.02
2022-08-17T15:46:08.078Z,32.11
2022-08-17T15:47:19.592Z,32.30
2022-08-17T15:48:43.900Z,32.37
2022-08-17T15:49:59.991Z,32.46
2022-08-17T15:51:20.273Z,32.66
2022-08-17T15:52:29.642Z,32.80
2022-08-17T15:53:39.408Z,32.89
2022-08-17T15:55:02.482Z,33.11
2022-08-17T15:56:11.560Z,33.34
2022-08-17T15:57:19.408Z,33.44
2022-08-17T15:58:33.328Z,33.51
2022-08-17T15:59:45.418Z,33.72
2022-08-17T16:01:16.570Z,33.93
2022-08-17T16:03:14.561Z,34.12
2022-08-17T16:04:06.810Z,34.30
2022-08-17T16:05:35.991Z,34.57
2022-08-17T16:06:46.610Z,34.85
2022-08-17T16:07:54.467Z,35.07
2022-08-17T16:09:02.611Z,35.13
2022-08-17T16:10:15.329Z,35.04
2022-08-17T16:11:28.325Z,34.96
2022-08-17T16:12:36.075Z,34.98
2022-08-17T16:13:54.726Z,35.00
2022-08-17T16:15:06.604Z,34.99
2022-08-17T16:16:14.058Z,35.06
2022-08-17T16:17:39.127Z,35.15
2022-08-17T16:18:58.638Z,35.09
2022-08-17T16:20:20.512Z,35.13
2022-08-17T16:21:43.133Z,35.11
2022-08-17T16:22:56.878Z,35.24
2022-08-17T16:24:12.703Z,35.36
2022-08-17T16:25:51.876Z,35.42
2022-08-17T16:27:04.800Z,35.52
2022-08-17T16:28:35.812Z,35.69
2022-08-17T16:29:45.722Z,35.74
2022-08-17T16:31:02.153Z,35.61
2022-08-17T16:32:18.554Z,35.56
2022-08-17T16:33:25.695Z,35.62
2022-08-17T16:34:35.718Z,35.70
2022-08-17T16:35:46.075Z,35.73
2022-08-17T16:36:57.577Z,35.89
2022-08-17T16:38:07.138Z,36.07
2022-08-17T16:39:19.224Z,35.96
2022-08-17T16:40:35.734Z,35.92
2022-08-17T16:41:55.720Z,35.93
2022-08-17T16:43:05.788Z,35.94